Terminal Aerodrome Forecast
Issued by NWS

Home | Current Version | Previous Version | Text Only | Print | Product List | Glossary On
Versions: 1 2 3 4 5 6 7 8 9 10 11 12 13 14 15 16 17 18 19 20 21
000
FTUS41 KCAR 251133
TAFBHB
TAF
KBHB 251133Z 2512/2612 26005KT P6SM OVC100
     FM251400 28010G20KT P6SM BKN070
     FM251700 31015G25KT P6SM SKC
     FM252300 31010KT P6SM SKC
     FM260300 29006KT P6SM SKC
      AMD LTD TO CLD VIS AND WIND=

USA.gov is the U.S. government's official web portal to all federal, state and local government web resources and services.